Time;durP1;ratioP1;P1;durP2;ratioP2;P2;SDS_P1;SDS_P2;PMS_P1;PMS_P2;Temp;Humidity;BMP_temperature;BMP_pressure;BME280_temperature;BME280_humidity;BME280_pressure;Samples;Min_cycle;Max_cycle;Signal;HPM_P1;HPM_P2
2022/01/13 00:01:04;;;;;;;200.18;39.30;;;3.70;99.90;;;;;;5084985;28;20040;-76
2022/01/13 00:03:30;;;;;;;230.82;43.38;;;3.70;99.90;;;;;;5082753;28;20084;-78
2022/01/13 00:05:58;;;;;;;189.02;40.75;;;3.70;99.90;;;;;;5080231;28;20142;-79
2022/01/13 00:08:24;;;;;;;205.57;41.42;;;3.70;99.90;;;;;;5082700;28;20028;-81
2022/01/13 00:10:49;;;;;;;243.50;42.70;;;3.70;99.90;;;;;;5097296;28;20105;-76
2022/01/13 00:13:22;;;;;;;224.52;41.70;;;3.70;99.90;;;;;;5096073;28;20044;-74
2022/01/13 00:16:01;;;;;;;238.63;42.55;;;3.70;99.90;;;;;;5098390;28;20044;-77
2022/01/13 00:18:38;;;;;;;189.57;38.80;;;3.70;99.90;;;;;;5077578;28;20091;-77
2022/01/13 00:21:15;;;;;;;209.40;36.65;;;3.70;99.90;;;;;;5086063;28;20045;-76
2022/01/13 00:23:51;;;;;;;237.23;39.58;;;3.70;99.90;;;;;;5077689;28;20622;-77
2022/01/13 00:26:23;;;;;;;241.30;43.42;;;3.70;99.90;;;;;;5076642;28;20048;-77
2022/01/13 00:28:51;;;;;;;225.75;40.35;;;3.70;99.90;;;;;;5078545;28;20141;-76
2022/01/13 00:31:23;;;;;;;249.05;43.20;;;3.70;99.90;;;;;;5082737;28;20288;-77
2022/01/13 00:33:51;;;;;;;282.33;42.90;;;3.90;99.90;;;;;;5078243;28;20040;-75
2022/01/13 00:36:17;;;;;;;257.85;40.90;;;3.70;99.90;;;;;;5090524;28;20148;-79
2022/01/13 00:38:46;;;;;;;233.68;38.90;;;3.80;99.90;;;;;;5090331;28;20056;-78
2022/01/13 00:41:12;;;;;;;283.95;43.92;;;3.80;99.90;;;;;;5091466;28;20122;-78
2022/01/13 00:43:40;;;;;;;244.30;38.28;;;3.80;99.90;;;;;;5082811;28;20060;-78
2022/01/13 00:46:07;;;;;;;299.92;43.72;;;3.80;99.90;;;;;;5081580;28;20040;-78
2022/01/13 00:48:33;;;;;;;261.00;42.83;;;3.80;99.90;;;;;;5080813;28;20052;-77
2022/01/13 00:50:59;;;;;;;275.30;41.60;;;3.80;99.90;;;;;;5082123;28;20536;-76
2022/01/13 00:53:24;;;;;;;251.85;40.95;;;3.80;99.90;;;;;;5080806;28;20594;-76
2022/01/13 00:55:59;;;;;;;295.70;43.25;;;3.90;99.90;;;;;;5081010;28;20052;-77
2022/01/13 00:58:30;;;;;;;289.15;41.75;;;3.80;99.90;;;;;;5081472;28;20048;-75
2022/01/13 01:00:57;;;;;;;261.00;38.88;;;3.90;99.90;;;;;;5080019;28;20068;-78
2022/01/13 01:03:23;;;;;;;296.67;43.45;;;3.90;99.90;;;;;;5081969;28;20044;-77
2022/01/13 01:05:49;;;;;;;253.10;37.42;;;3.90;99.90;;;;;;5080604;28;20492;-77
2022/01/13 01:08:15;;;;;;;262.85;38.38;;;3.90;99.90;;;;;;5081610;28;20050;-77
2022/01/13 01:10:41;;;;;;;264.10;39.10;;;3.90;99.90;;;;;;5080800;28;20041;-75
2022/01/13 01:13:13;;;;;;;284.88;42.08;;;3.90;99.90;;;;;;5081068;28;20086;-76
2022/01/13 01:15:44;;;;;;;275.50;40.88;;;4.40;99.90;;;;;;5081417;28;20055;-77
2022/01/13 01:20:51;;;;;;;261.15;39.30;;;4.00;99.90;;;;;;5081610;28;20386;-73
2022/01/13 01:23:22;;;;;;;213.10;34.22;;;4.00;99.90;;;;;;5080433;28;20061;-76
2022/01/13 01:26:07;;;;;;;256.23;41.42;;;4.00;99.90;;;;;;5081050;28;20080;-77
2022/01/13 01:28:44;;;;;;;283.20;40.10;;;4.10;99.90;;;;;;5088142;28;20044;-77
2022/01/13 01:31:11;;;;;;;283.92;40.03;;;4.00;99.90;;;;;;5079281;28;20044;-77
2022/01/13 01:33:41;;;;;;;232.20;39.95;;;4.10;99.90;;;;;;5098464;28;20048;-78
2022/01/13 01:36:12;;;;;;;270.45;39.42;;;4.10;99.90;;;;;;5080470;28;20037;-78
2022/01/13 01:38:38;;;;;;;268.48;39.55;;;4.00;99.90;;;;;;5080869;28;20049;-75
2022/01/13 01:41:04;;;;;;;275.00;41.63;;;4.00;99.90;;;;;;5080266;28;20048;-77
2022/01/13 01:43:30;;;;;;;276.50;39.70;;;4.00;99.90;;;;;;5080304;28;20072;-75
2022/01/13 01:45:55;;;;;;;310.00;43.75;;;4.20;99.90;;;;;;5096670;28;20646;-78
2022/01/13 01:48:21;;;;;;;249.27;37.88;;;4.00;99.90;;;;;;5081313;28;20044;-78
2022/01/13 01:50:55;;;;;;;286.02;39.58;;;4.10;99.90;;;;;;5080734;28;20066;-78
2022/01/13 01:53:23;;;;;;;262.52;37.65;;;4.10;99.90;;;;;;5080066;28;20063;-79
2022/01/13 01:55:48;;;;;;;260.83;38.15;;;4.10;99.90;;;;;;5083989;28;20464;-75
2022/01/13 01:58:14;;;;;;;243.98;38.13;;;4.10;99.90;;;;;;5080263;28;20032;-76
2022/01/13 02:00:40;;;;;;;260.75;36.78;;;4.10;99.90;;;;;;5078165;28;20427;-79
2022/01/13 02:03:06;;;;;;;231.18;36.65;;;4.10;99.90;;;;;;5090248;28;20047;-77
2022/01/13 02:05:32;;;;;;;258.05;36.53;;;4.10;99.90;;;;;;5093672;28;20100;-74
2022/01/13 02:07:58;;;;;;;258.80;38.53;;;4.10;99.90;;;;;;5084657;28;20083;-78
2022/01/13 02:10:23;;;;;;;235.73;38.00;;;4.10;99.90;;;;;;5098459;28;20047;-78
2022/01/13 02:13:00;;;;;;;243.52;38.08;;;4.20;99.90;;;;;;5080416;28;20048;-77
2022/01/13 02:15:30;;;;;;;273.75;37.60;;;4.20;99.90;;;;;;5078540;28;20098;-75
2022/01/13 02:17:57;;;;;;;240.43;35.08;;;4.20;99.90;;;;;;5079312;28;20064;-76
2022/01/13 02:20:23;;;;;;;237.93;34.65;;;4.20;99.90;;;;;;5090509;28;20052;-78
2022/01/13 02:22:49;;;;;;;199.30;32.97;;;4.20;99.90;;;;;;5088137;28;20292;-77
2022/01/13 02:25:16;;;;;;;253.43;37.97;;;4.20;99.90;;;;;;5080227;28;20044;-76
2022/01/13 02:27:43;;;;;;;180.18;32.10;;;4.20;99.90;;;;;;5078043;28;20037;-75
2022/01/13 02:30:09;;;;;;;227.95;34.28;;;4.30;99.90;;;;;;5079406;28;20044;-77
2022/01/13 02:32:35;;;;;;;200.25;32.92;;;4.30;99.90;;;;;;5079461;28;20083;-75
2022/01/13 02:35:01;;;;;;;237.13;35.42;;;4.30;99.90;;;;;;5079291;28;20036;-77
2022/01/13 02:37:26;;;;;;;198.75;31.42;;;4.50;99.90;;;;;;5079934;28;20071;-78
2022/01/13 02:39:52;;;;;;;191.30;34.60;;;4.30;99.90;;;;;;5077702;28;20476;-79
2022/01/13 02:42:18;;;;;;;203.63;30.98;;;4.30;99.90;;;;;;5078603;28;20185;-79
2022/01/13 02:45:03;;;;;;;167.88;30.08;;;4.40;99.90;;;;;;5086323;28;20052;-79
2022/01/13 02:47:37;;;;;;;198.32;30.63;;;4.30;99.90;;;;;;5078799;28;20070;-77
2022/01/13 02:50:04;;;;;;;193.10;30.08;;;4.40;99.90;;;;;;5088739;28;20098;-78
2022/01/13 02:52:31;;;;;;;193.23;31.45;;;4.40;99.90;;;;;;5088603;28;20051;-76
2022/01/13 02:54:56;;;;;;;181.02;28.33;;;4.40;99.90;;;;;;5103988;28;20039;-77
2022/01/13 02:57:22;;;;;;;160.63;27.50;;;4.40;99.90;;;;;;5096548;27;20043;-77
2022/01/13 02:59:48;;;;;;;181.60;30.55;;;4.40;99.90;;;;;;5078737;28;20206;-79
2022/01/13 03:02:13;;;;;;;170.25;28.75;;;4.40;99.90;;;;;;5078872;28;20040;-79
2022/01/13 03:04:46;;;;;;;139.60;25.67;;;4.40;99.90;;;;;;5079077;28;20083;-76
2022/01/13 03:07:12;;;;;;;118.28;24.85;;;4.40;99.90;;;;;;5079246;28;20048;-78
2022/01/13 03:09:37;;;;;;;156.02;26.95;;;4.40;99.90;;;;;;5078503;28;20573;-79
2022/01/13 03:12:04;;;;;;;112.45;23.23;;;4.90;99.90;;;;;;5078018;28;20064;-78
2022/01/13 03:14:30;;;;;;;148.40;26.88;;;4.40;99.90;;;;;;5078427;28;20105;-80
2022/01/13 03:16:55;;;;;;;161.07;27.80;;;4.40;99.90;;;;;;5079369;28;20044;-79
2022/01/13 03:19:22;;;;;;;155.57;27.15;;;4.40;99.90;;;;;;5081748;28;20131;-76
2022/01/13 03:21:48;;;;;;;173.20;27.20;;;4.40;99.90;;;;;;5096180;28;20631;-75
2022/01/13 03:24:14;;;;;;;171.55;26.55;;;4.40;99.90;;;;;;5085637;28;20036;-78
2022/01/13 03:26:42;;;;;;;126.22;24.92;;;4.40;99.90;;;;;;5077954;28;20123;-79
2022/01/13 03:31:36;;;;;;;138.25;25.65;;;4.60;99.90;;;;;;5087928;28;20037;-79
2022/01/13 03:34:02;;;;;;;134.85;24.73;;;4.70;99.90;;;;;;5079193;28;20047;-80
2022/01/13 03:36:28;;;;;;;137.55;23.42;;;4.50;99.90;;;;;;5081748;28;20415;-78
2022/01/13 03:38:54;;;;;;;118.70;20.98;;;4.40;99.90;;;;;;5098371;28;20067;-79
2022/01/13 03:41:21;;;;;;;118.60;24.83;;;4.40;99.90;;;;;;5078641;28;20104;-80
2022/01/13 03:43:50;;;;;;;137.52;23.70;;;5.00;99.90;;;;;;5062482;28;20182;-81
2022/01/13 03:46:15;;;;;;;123.65;23.40;;;4.40;99.90;;;;;;5099256;28;20052;-81
2022/01/13 03:48:42;;;;;;;122.55;22.88;;;4.40;99.90;;;;;;5092270;28;20423;-78
2022/01/13 03:51:08;;;;;;;149.73;26.10;;;4.40;99.90;;;;;;5098830;28;20499;-80
2022/01/13 03:53:54;;;;;;;141.68;27.35;;;4.40;99.90;;;;;;5089496;28;20040;-80
2022/01/13 03:56:35;;;;;;;118.38;22.35;;;4.40;99.90;;;;;;5078262;28;20048;-78
2022/01/13 03:59:00;;;;;;;141.52;23.40;;;4.40;99.90;;;;;;5094469;28;20048;-81
2022/01/13 04:01:45;;;;;;;148.65;25.80;;;4.40;99.90;;;;;;5086571;28;20098;-78
2022/01/13 04:04:11;;;;;;;116.93;24.63;;;4.40;99.90;;;;;;5085492;28;20052;-76
2022/01/13 04:06:40;;;;;;;122.72;21.75;;;4.40;99.90;;;;;;5093204;28;20097;-78
2022/01/13 04:09:34;;;;;;;133.18;24.35;;;4.40;99.90;;;;;;5077424;28;20500;-79
2022/01/13 04:12:04;;;;;;;124.93;24.05;;;4.40;99.90;;;;;;5078689;28;20059;-75
2022/01/13 04:17:14;;;;;;;122.13;24.23;;;4.40;99.90;;;;;;5096084;28;20079;-80
2022/01/13 04:19:40;;;;;;;145.32;25.00;;;4.40;99.90;;;;;;5085827;28;20458;-78
2022/01/13 04:22:07;;;;;;;109.80;21.55;;;4.40;99.90;;;;;;5081871;28;20087;-80
2022/01/13 04:24:35;;;;;;;127.13;23.75;;;4.40;99.90;;;;;;5090089;28;20036;-78
2022/01/13 04:27:01;;;;;;;100.13;20.27;;;4.30;99.90;;;;;;5087876;28;20044;-76
2022/01/13 04:29:32;;;;;;;128.70;24.70;;;4.30;99.90;;;;;;5090829;28;20173;-79
2022/01/13 04:31:58;;;;;;;105.70;21.55;;;4.60;99.90;;;;;;5092174;28;20063;-79
2022/01/13 04:34:25;;;;;;;117.55;21.23;;;4.40;99.90;;;;;;5072776;28;20055;-80
2022/01/13 04:36:51;;;;;;;99.65;21.80;;;4.30;99.90;;;;;;5080427;28;20049;-76
2022/01/13 04:39:17;;;;;;;117.28;23.08;;;4.30;99.90;;;;;;5081031;28;20055;-79
2022/01/13 04:41:45;;;;;;;95.90;18.92;;;4.60;99.90;;;;;;5081476;28;20049;-78
2022/01/13 04:44:17;;;;;;;90.15;19.55;;;4.30;99.90;;;;;;5080574;28;20439;-75
2022/01/13 04:46:43;;;;;;;96.82;22.20;;;4.30;99.90;;;;;;5082128;28;20127;-76
2022/01/13 04:49:09;;;;;;;87.93;18.58;;;4.30;99.90;;;;;;5079878;28;20044;-74
2022/01/13 04:51:37;;;;;;;93.68;20.05;;;4.30;99.90;;;;;;5082767;28;20033;-75
2022/01/13 04:54:03;;;;;;;105.63;21.02;;;4.20;99.90;;;;;;5097424;28;20040;-75
2022/01/13 04:56:37;;;;;;;90.80;21.38;;;4.20;99.90;;;;;;5103852;28;20045;-78
2022/01/13 04:59:03;;;;;;;94.28;20.27;;;4.20;99.90;;;;;;5081896;28;20061;-77
2022/01/13 05:01:29;;;;;;;101.88;21.17;;;4.20;99.90;;;;;;5080385;28;20036;-78
2022/01/13 05:03:55;;;;;;;94.85;22.40;;;4.30;99.90;;;;;;5090348;28;20044;-72
2022/01/13 05:06:21;;;;;;;92.38;20.33;;;4.20;99.90;;;;;;5089940;28;20118;-74
2022/01/13 05:08:48;;;;;;;120.80;23.63;;;3.50;99.90;;;;;;5081398;28;20041;-76
2022/01/13 05:11:17;;;;;;;81.22;21.02;;;4.40;99.90;;;;;;5081238;28;20406;-74
2022/01/13 05:13:44;;;;;;;86.00;20.10;;;4.20;99.90;;;;;;5080541;28;20083;-74
2022/01/13 05:16:48;;;;;;;87.63;20.67;;;4.20;99.90;;;;;;5080306;28;20161;-78
2022/01/13 05:19:11;;;;;;;88.07;21.25;;;4.40;99.90;;;;;;5079711;28;20151;-74
2022/01/13 05:22:15;;;;;;;59.28;16.17;;;4.20;99.90;;;;;;5091388;28;20044;-79
2022/01/13 05:24:31;;;;;;;115.63;22.77;;;4.10;99.90;;;;;;5088605;28;20622;-78
2022/01/13 05:26:57;;;;;;;100.13;21.33;;;4.10;99.90;;;;;;5080336;28;20100;-77
2022/01/13 05:29:23;;;;;;;70.07;19.73;;;4.20;99.90;;;;;;5081250;28;20067;-80
2022/01/13 05:31:49;;;;;;;99.25;21.65;;;4.10;99.90;;;;;;5093186;28;20353;-75
2022/01/13 05:34:16;;;;;;;85.57;20.00;;;4.10;99.90;;;;;;5079775;28;20074;-74
2022/01/13 05:36:43;;;;;;;81.93;20.33;;;4.10;99.90;;;;;;5080647;28;20103;-75
2022/01/13 05:39:10;;;;;;;75.55;18.63;;;4.10;99.90;;;;;;5094773;28;20055;-73
2022/01/13 05:41:36;;;;;;;83.60;20.85;;;4.10;99.90;;;;;;5082955;28;20041;-77
2022/01/13 05:44:01;;;;;;;87.15;20.30;;;4.00;99.90;;;;;;5080110;28;20068;-82
2022/01/13 05:46:27;;;;;;;91.28;21.63;;;4.10;99.90;;;;;;5080998;28;20055;-78
2022/01/13 05:48:56;;;;;;;71.32;18.17;;;4.10;99.90;;;;;;5078355;28;20036;-76
2022/01/13 05:51:24;;;;;;;93.10;19.15;;;4.10;99.90;;;;;;5080730;28;20048;-76
2022/01/13 05:53:49;;;;;;;95.68;20.05;;;4.10;99.90;;;;;;5080496;28;20032;-78
2022/01/13 05:56:16;;;;;;;81.18;20.20;;;4.00;99.90;;;;;;5115755;28;20046;-75
2022/01/13 05:58:42;;;;;;;86.40;22.13;;;4.00;99.90;;;;;;5097386;28;20040;-77
2022/01/13 06:01:08;;;;;;;81.45;20.23;;;4.00;99.90;;;;;;5088169;28;20056;-77
2022/01/13 06:03:34;;;;;;;102.32;21.38;;;4.00;99.90;;;;;;5085321;28;20033;-79
2022/01/13 06:05:59;;;;;;;99.18;21.20;;;4.00;99.90;;;;;;5082372;28;20036;-78
2022/01/13 06:08:25;;;;;;;107.90;21.77;;;4.00;99.90;;;;;;5089252;28;20041;-78
2022/01/13 06:10:51;;;;;;;103.90;19.85;;;3.90;99.90;;;;;;5080040;28;20047;-78
2022/01/13 06:13:17;;;;;;;105.55;20.90;;;3.90;99.90;;;;;;5079755;28;20533;-77
2022/01/13 06:15:42;;;;;;;96.13;20.95;;;3.90;99.90;;;;;;5080171;28;20044;-73
2022/01/13 06:18:15;;;;;;;109.63;21.25;;;3.90;99.90;;;;;;5079231;28;20052;-79
2022/01/13 06:20:42;;;;;;;105.07;21.30;;;3.90;99.90;;;;;;5080719;28;20051;-76
2022/01/13 06:23:10;;;;;;;96.65;18.65;;;3.90;99.90;;;;;;5079580;28;20052;-76
2022/01/13 06:25:35;;;;;;;91.05;19.50;;;3.90;99.90;;;;;;5089233;28;20133;-74
2022/01/13 06:28:02;;;;;;;93.90;21.75;;;3.90;99.90;;;;;;5079571;28;20088;-77
2022/01/13 06:30:30;;;;;;;89.38;18.35;;;3.90;99.90;;;;;;5079182;28;20105;-78
2022/01/13 06:32:55;;;;;;;65.35;18.45;;;3.90;99.90;;;;;;5078730;28;20181;-76
2022/01/13 06:35:21;;;;;;;96.22;21.38;;;3.90;99.90;;;;;;5078532;28;20056;-78
2022/01/13 06:37:47;;;;;;;94.50;20.08;;;3.90;99.90;;;;;;5079800;28;20048;-77
2022/01/13 06:40:14;;;;;;;75.60;19.45;;;3.90;99.90;;;;;;5077640;28;20071;-77
2022/01/13 06:42:40;;;;;;;100.30;19.08;;;3.80;99.90;;;;;;5079317;28;20033;-77
2022/01/13 06:45:08;;;;;;;93.13;20.45;;;3.90;99.90;;;;;;5079274;28;20094;-80
2022/01/13 06:47:33;;;;;;;90.35;19.38;;;3.90;99.90;;;;;;5091694;28;20040;-78
2022/01/13 06:49:59;;;;;;;79.80;20.02;;;4.10;99.90;;;;;;5080994;28;20047;-78
2022/01/13 06:52:25;;;;;;;86.22;19.15;;;3.90;99.90;;;;;;5083873;28;20048;-76
2022/01/13 06:54:52;;;;;;;93.07;20.17;;;3.90;99.90;;;;;;5097091;28;20048;-78
2022/01/13 06:57:19;;;;;;;85.03;18.98;;;4.00;99.90;;;;;;5081560;28;20044;-79
2022/01/13 06:59:45;;;;;;;76.97;19.05;;;3.90;99.90;;;;;;5079438;28;20044;-75
2022/01/13 07:02:12;;;;;;;81.60;18.70;;;3.90;99.90;;;;;;5078437;28;20128;-80
2022/01/13 07:04:38;;;;;;;81.70;17.60;;;3.90;99.90;;;;;;5079071;28;20053;-79
2022/01/13 07:07:04;;;;;;;105.00;22.10;;;3.90;99.90;;;;;;5079002;28;20112;-77
2022/01/13 07:09:30;;;;;;;94.10;19.75;;;4.10;99.90;;;;;;5078294;28;20075;-77
2022/01/13 07:11:55;;;;;;;69.07;17.10;;;4.20;99.90;;;;;;5077540;28;20036;-78
2022/01/13 07:14:21;;;;;;;109.88;21.67;;;3.90;99.90;;;;;;5077748;28;20063;-80
2022/01/13 07:16:47;;;;;;;83.72;18.98;;;3.90;99.90;;;;;;5079194;28;20040;-80
2022/01/13 07:19:15;;;;;;;76.05;18.48;;;4.00;99.90;;;;;;5076612;28;20179;-77
2022/01/13 07:21:42;;;;;;;85.22;18.90;;;4.00;99.90;;;;;;5078860;28;20053;-80
2022/01/13 07:24:08;;;;;;;95.32;20.08;;;4.00;99.90;;;;;;5078484;28;20048;-79
2022/01/13 07:26:34;;;;;;;82.53;21.77;;;4.10;99.90;;;;;;5078257;28;20040;-75
2022/01/13 07:29:00;;;;;;;78.88;19.30;;;4.00;99.90;;;;;;5077636;28;20584;-74
2022/01/13 07:31:27;;;;;;;75.05;19.50;;;4.20;99.90;;;;;;5079479;28;20033;-76
2022/01/13 07:33:53;;;;;;;78.40;20.30;;;4.00;99.90;;;;;;5110453;28;20052;-78
2022/01/13 07:36:19;;;;;;;81.25;19.23;;;4.10;99.90;;;;;;5090315;28;20043;-75
2022/01/13 07:38:45;;;;;;;92.53;20.77;;;4.10;99.90;;;;;;5080306;28;20048;-81
2022/01/13 07:41:10;;;;;;;97.38;20.25;;;3.90;99.90;;;;;;5076823;28;20044;-79
2022/01/13 07:43:36;;;;;;;98.05;20.90;;;4.00;99.90;;;;;;5077978;28;20040;-79
2022/01/13 07:46:02;;;;;;;82.68;20.85;;;4.00;99.90;;;;;;5077753;28;20105;-80
2022/01/13 07:48:28;;;;;;;104.97;20.83;;;4.00;99.90;;;;;;5079697;28;20069;-78
2022/01/13 07:50:54;;;;;;;83.25;20.85;;;4.00;99.90;;;;;;5078705;28;20135;-79
2022/01/13 07:53:20;;;;;;;93.15;20.58;;;4.00;99.90;;;;;;5077783;28;20055;-78
2022/01/13 07:55:46;;;;;;;84.40;20.38;;;4.00;99.90;;;;;;5106379;28;20070;-79
2022/01/13 07:58:11;;;;;;;88.88;19.80;;;4.00;99.90;;;;;;5081048;28;20044;-80
2022/01/13 08:00:37;;;;;;;87.68;19.88;;;4.00;99.90;;;;;;5077284;28;20032;-79
2022/01/13 08:03:03;;;;;;;90.85;21.20;;;4.10;99.90;;;;;;5094337;28;20043;-79
2022/01/13 08:05:29;;;;;;;97.85;22.60;;;4.10;99.90;;;;;;5080107;28;20100;-81
2022/01/13 08:07:55;;;;;;;88.97;20.35;;;4.10;99.90;;;;;;5076976;28;20108;-77
2022/01/13 08:10:21;;;;;;;96.90;21.13;;;4.10;99.90;;;;;;5078118;28;20052;-81
2022/01/13 08:12:46;;;;;;;67.18;18.30;;;4.10;99.90;;;;;;5078709;28;20071;-81
2022/01/13 08:15:14;;;;;;;74.15;18.27;;;4.10;99.90;;;;;;5078219;28;20056;-78
2022/01/13 08:20:30;;;;;;;96.80;22.48;;;4.10;99.90;;;;;;5079552;28;20048;-79
2022/01/13 08:22:57;;;;;;;79.13;18.40;;;4.10;99.90;;;;;;5081035;28;20051;-76
2022/01/13 08:25:24;;;;;;;66.15;18.13;;;4.10;99.90;;;;;;5089860;28;20048;-83
2022/01/13 08:27:49;;;;;;;91.80;18.83;;;4.20;99.90;;;;;;5082977;28;20075;-81
2022/01/13 08:30:15;;;;;;;74.30;20.30;;;4.20;99.90;;;;;;5079231;28;20040;-76
2022/01/13 08:32:41;;;;;;;71.32;19.13;;;4.20;99.90;;;;;;5094185;28;20040;-75
2022/01/13 08:35:08;;;;;;;84.63;19.77;;;4.30;99.90;;;;;;5082807;28;20044;-77
2022/01/13 08:37:34;;;;;;;70.28;17.60;;;4.20;99.90;;;;;;5080434;28;20040;-78
2022/01/13 08:40:02;;;;;;;78.32;20.55;;;4.40;99.90;;;;;;5094509;28;20098;-76
2022/01/13 08:42:28;;;;;;;73.15;19.38;;;4.30;99.90;;;;;;5080640;28;20052;-76
2022/01/13 08:44:54;;;;;;;72.38;18.88;;;4.20;99.90;;;;;;5086157;28;20105;-78
2022/01/13 08:47:19;;;;;;;91.88;21.48;;;4.30;99.90;;;;;;5088722;28;20048;-77
2022/01/13 08:49:45;;;;;;;85.40;18.45;;;4.30;99.90;;;;;;5091694;28;20051;-77
2022/01/13 08:52:11;;;;;;;60.22;17.48;;;4.30;99.90;;;;;;5091274;28;20093;-73
2022/01/13 08:54:37;;;;;;;86.47;21.83;;;4.30;99.90;;;;;;5099264;28;20122;-83
2022/01/13 08:57:03;;;;;;;72.85;18.90;;;4.50;99.90;;;;;;5113957;28;20046;-72
2022/01/13 08:59:28;;;;;;;83.97;21.40;;;4.30;99.90;;;;;;5092868;28;20047;-75
2022/01/13 09:01:54;;;;;;;78.65;19.25;;;4.30;99.90;;;;;;5100116;28;20627;-81
2022/01/13 09:04:20;;;;;;;75.35;18.73;;;4.40;99.90;;;;;;5101314;28;20044;-76
2022/01/13 09:06:46;;;;;;;79.35;20.17;;;4.60;99.90;;;;;;5094171;28;20052;-76
2022/01/13 09:09:15;;;;;;;74.03;19.50;;;4.40;99.90;;;;;;5088718;28;20047;-75
2022/01/13 09:11:42;;;;;;;62.03;17.85;;;4.40;99.90;;;;;;5092439;28;20044;-77
2022/01/13 09:14:08;;;;;;;65.78;19.40;;;4.40;99.90;;;;;;5080896;28;20467;-78
2022/01/13 09:16:41;;;;;;;84.75;18.23;;;4.50;99.90;;;;;;5092563;28;20086;-75
2022/01/13 09:19:13;;;;;;;73.32;19.45;;;4.40;99.90;;;;;;5099413;28;20122;-75
2022/01/13 09:21:41;;;;;;;79.15;18.85;;;4.50;99.90;;;;;;5091713;28;20098;-74
2022/01/13 09:24:11;;;;;;;78.93;18.80;;;4.40;99.90;;;;;;5080906;28;20094;-77
2022/01/13 09:26:38;;;;;;;76.05;18.95;;;4.40;99.90;;;;;;5085265;28;20044;-78
2022/01/13 09:29:05;;;;;;;74.63;19.25;;;4.40;99.90;;;;;;5088149;28;20045;-80
2022/01/13 09:31:32;;;;;;;74.88;20.00;;;4.40;99.90;;;;;;5086652;28;20044;-76
2022/01/13 09:33:59;;;;;;;71.45;18.20;;;4.50;99.90;;;;;;5099473;28;20048;-79
2022/01/13 09:36:24;;;;;;;77.60;18.88;;;4.40;99.90;;;;;;5095650;28;20033;-81
2022/01/13 09:38:50;;;;;;;90.90;20.02;;;4.50;99.90;;;;;;5079572;28;20036;-77
2022/01/13 09:41:17;;;;;;;84.00;20.90;;;4.50;99.90;;;;;;5080590;28;20055;-74
2022/01/13 09:43:44;;;;;;;85.15;20.15;;;4.50;99.90;;;;;;5081361;28;20033;-76
2022/01/13 09:46:10;;;;;;;82.95;22.25;;;4.50;99.90;;;;;;5083333;28;20050;-77
2022/01/13 09:48:41;;;;;;;92.95;20.80;;;4.50;99.90;;;;;;5082360;28;20391;-79
2022/01/13 09:51:07;;;;;;;77.22;20.05;;;4.60;99.90;;;;;;5081484;28;20166;-76
2022/01/13 09:53:35;;;;;;;92.43;22.73;;;4.60;99.90;;;;;;5089906;28;20098;-78
2022/01/13 09:56:01;;;;;;;85.65;20.88;;;4.60;99.90;;;;;;5082881;28;20075;-77
2022/01/13 09:58:27;;;;;;;66.63;19.63;;;4.60;99.90;;;;;;5080473;28;20064;-80
2022/01/13 10:00:53;;;;;;;75.90;20.20;;;4.60;99.90;;;;;;5079238;28;20059;-75
2022/01/13 10:03:27;;;;;;;81.40;20.45;;;4.60;99.90;;;;;;5097977;28;20135;-77
2022/01/13 10:05:58;;;;;;;84.65;20.98;;;4.70;99.90;;;;;;5085081;28;20045;-81
2022/01/13 10:08:43;;;;;;;84.28;21.00;;;4.60;99.90;;;;;;5087607;28;20040;-75
2022/01/13 10:11:54;;;;;;;87.53;23.20;;;4.70;99.90;;;;;;5078667;28;20560;-77
2022/01/13 10:17:04;;;;;;;86.50;21.88;;;4.70;99.90;;;;;;5100185;28;20059;-78
2022/01/13 10:19:36;;;;;;;80.32;20.73;;;4.70;99.90;;;;;;5084212;28;20048;-77
2022/01/13 10:22:04;;;;;;;78.70;20.20;;;4.70;99.90;;;;;;5078718;28;20049;-75
2022/01/13 10:24:35;;;;;;;73.00;18.83;;;4.70;99.90;;;;;;5084692;28;20044;-77
2022/01/13 10:27:02;;;;;;;95.68;20.48;;;4.70;99.90;;;;;;5098059;28;20040;-79
2022/01/13 10:29:40;;;;;;;89.28;21.13;;;4.80;99.90;;;;;;5078613;28;20163;-76
2022/01/13 10:32:07;;;;;;;79.50;19.67;;;4.70;99.90;;;;;;5090850;28;20131;-78
2022/01/13 10:34:36;;;;;;;79.03;17.92;;;4.70;99.90;;;;;;5085486;28;20051;-80
2022/01/13 10:37:12;;;;;;;82.43;20.85;;;4.70;99.90;;;;;;5085611;28;20058;-80
2022/01/13 10:39:54;;;;;;;90.30;22.90;;;4.80;99.90;;;;;;5082412;28;20102;-77
2022/01/13 10:45:14;;;;;;;84.80;20.42;;;4.80;99.90;;;;;;5085882;28;20048;-79
2022/01/13 10:47:48;;;;;;;85.75;21.40;;;4.80;99.90;;;;;;5097413;28;20047;-77
2022/01/13 10:50:14;;;;;;;95.75;21.23;;;5.00;99.90;;;;;;5080948;28;20423;-78
2022/01/13 10:52:40;;;;;;;81.93;20.42;;;4.90;99.90;;;;;;5078297;28;20105;-78
2022/01/13 10:55:16;;;;;;;80.93;19.65;;;5.10;99.90;;;;;;5087523;28;20056;-80
2022/01/13 10:57:43;;;;;;;76.32;21.08;;;4.90;99.90;;;;;;5080567;28;20080;-80
2022/01/13 11:00:16;;;;;;;84.88;22.17;;;4.90;99.90;;;;;;5082960;28;20036;-78
2022/01/13 11:02:42;;;;;;;71.78;19.13;;;4.90;99.90;;;;;;5098788;28;20079;-78
2022/01/13 11:05:10;;;;;;;79.07;20.48;;;4.90;99.90;;;;;;5093741;28;20056;-77
2022/01/13 11:07:37;;;;;;;90.05;20.50;;;4.90;99.90;;;;;;5081700;28;20113;-76
2022/01/13 11:10:06;;;;;;;78.90;21.35;;;4.90;99.90;;;;;;5078497;28;20052;-72
2022/01/13 11:12:35;;;;;;;70.95;20.40;;;4.90;99.90;;;;;;5080206;28;20092;-75
2022/01/13 11:15:05;;;;;;;62.10;19.33;;;4.90;99.90;;;;;;5078577;28;20051;-77
2022/01/13 11:17:38;;;;;;;81.50;21.08;;;5.00;99.90;;;;;;5089830;28;20127;-78
2022/01/13 11:20:09;;;;;;;66.20;19.73;;;5.00;99.90;;;;;;5079546;28;20052;-75
2022/01/13 11:22:38;;;;;;;78.30;21.05;;;5.00;99.90;;;;;;5085363;28;21089;-75
2022/01/13 11:25:15;;;;;;;67.63;18.48;;;5.10;99.90;;;;;;5089062;28;20052;-74
2022/01/13 11:27:42;;;;;;;83.10;21.52;;;5.00;99.90;;;;;;5097780;28;20095;-80
2022/01/13 11:30:13;;;;;;;76.35;21.38;;;5.00;99.90;;;;;;5103444;28;20058;-78
2022/01/13 11:32:43;;;;;;;74.45;18.80;;;5.00;99.90;;;;;;5113120;28;20051;-76
2022/01/13 11:35:11;;;;;;;65.13;19.98;;;5.00;99.90;;;;;;5105742;28;20059;-77
2022/01/13 11:37:39;;;;;;;54.65;15.57;;;5.10;99.90;;;;;;5088618;28;20066;-74
2022/01/13 11:40:07;;;;;;;55.00;16.35;;;5.00;99.90;;;;;;5083126;28;20095;-78
2022/01/13 11:42:45;;;;;;;63.67;18.30;;;5.10;99.90;;;;;;5085958;28;20126;-73
2022/01/13 11:45:16;;;;;;;55.78;18.25;;;5.10;99.90;;;;;;5082163;28;20056;-74
2022/01/13 11:47:43;;;;;;;54.88;16.50;;;5.10;99.90;;;;;;5075864;28;20052;-74
2022/01/13 11:50:16;;;;;;;66.95;17.17;;;5.10;99.90;;;;;;5079025;28;20059;-77
2022/01/13 11:52:43;;;;;;;59.28;18.88;;;5.10;99.90;;;;;;5077082;28;20221;-73
2022/01/13 11:55:21;;;;;;;62.58;18.20;;;5.10;99.90;;;;;;5080887;28;20036;-74
2022/01/13 11:57:47;;;;;;;63.20;19.90;;;5.10;99.90;;;;;;5078361;28;20116;-79
2022/01/13 12:00:29;;;;;;;65.53;20.77;;;5.10;99.90;;;;;;5091290;28;20098;-74
2022/01/13 12:02:56;;;;;;;58.95;17.80;;;5.10;99.90;;;;;;5080246;28;20048;-76
2022/01/13 12:05:25;;;;;;;47.17;16.00;;;5.00;99.90;;;;;;5094002;28;20086;-78
2022/01/13 12:07:57;;;;;;;55.70;17.40;;;5.10;99.90;;;;;;5078355;28;20056;-73
2022/01/13 12:10:34;;;;;;;68.35;19.38;;;5.00;99.90;;;;;;5081450;28;20035;-75
2022/01/13 12:13:20;;;;;;;50.15;16.40;;;5.00;99.90;;;;;;5089937;28;20044;-77
2022/01/13 12:15:46;;;;;;;63.53;18.63;;;5.00;99.90;;;;;;5085485;28;20123;-74
2022/01/13 12:18:12;;;;;;;56.28;17.42;;;5.00;99.90;;;;;;5095634;28;20051;-73
2022/01/13 12:20:56;;;;;;;59.75;19.23;;;5.00;99.90;;;;;;5088903;28;20059;-75
2022/01/13 12:23:43;;;;;;;61.38;18.30;;;5.00;99.90;;;;;;5077281;28;20134;-74
2022/01/13 12:26:49;;;;;;;71.05;20.77;;;5.00;99.90;;;;;;5079108;28;20064;-78
2022/01/13 12:29:27;;;;;;;65.25;17.63;;;5.00;99.90;;;;;;5060393;28;20064;-76
2022/01/13 12:32:04;;;;;;;64.70;18.80;;;5.00;99.90;;;;;;5087790;28;20040;-75
2022/01/13 12:34:33;;;;;;;60.83;20.40;;;5.00;99.90;;;;;;5086274;28;20523;-76
2022/01/13 12:37:23;;;;;;;74.28;19.35;;;5.00;99.90;;;;;;5096822;28;20050;-73
2022/01/13 12:39:57;;;;;;;64.20;17.77;;;5.00;99.90;;;;;;5099520;28;20081;-75
2022/01/13 12:42:26;;;;;;;66.18;18.08;;;5.00;99.90;;;;;;5101528;27;20048;-77
2022/01/13 12:47:38;;;;;;;59.95;18.70;;;4.90;99.90;;;;;;5094381;28;20053;-75
2022/01/13 12:50:26;;;;;;;62.78;18.52;;;5.30;99.90;;;;;;5095706;28;20032;-73
2022/01/13 12:52:57;;;;;;;63.80;18.10;;;4.90;99.90;;;;;;5087208;28;20039;-75
2022/01/13 12:55:23;;;;;;;59.58;19.80;;;5.00;99.90;;;;;;5100244;28;20040;-77
2022/01/13 12:57:52;;;;;;;57.38;18.35;;;5.00;99.90;;;;;;5084131;28;20044;-74
2022/01/13 13:00:22;;;;;;;63.08;19.30;;;5.00;99.90;;;;;;5091490;28;20044;-74